sensor_id;sensor_type;location;lat;lon;timestamp;P1;durP1;ratioP1;P2;durP2;ratioP2
22359;SDS011;11347;52.030;4.690;2022-12-18T00:00:40;26.07;;;12.43;;
22359;SDS011;11347;52.030;4.690;2022-12-18T00:03:06;24.53;;;12.03;;
22359;SDS011;11347;52.030;4.690;2022-12-18T00:05:32;28.43;;;13.13;;
22359;SDS011;11347;52.030;4.690;2022-12-18T00:07:57;27.43;;;12.73;;
22359;SDS011;11347;52.030;4.690;2022-12-18T00:10:23;27.20;;;13.30;;
22359;SDS011;11347;52.030;4.690;2022-12-18T00:12:48;27.30;;;13.17;;
22359;SDS011;11347;52.030;4.690;2022-12-18T00:15:14;24.73;;;12.63;;
22359;SDS011;11347;52.030;4.690;2022-12-18T00:17:39;28.50;;;13.60;;
22359;SDS011;11347;52.030;4.690;2022-12-18T00:20:05;25.17;;;12.13;;
22359;SDS011;11347;52.030;4.690;2022-12-18T00:22:31;28.50;;;13.27;;
22359;SDS011;11347;52.030;4.690;2022-12-18T00:24:57;27.63;;;13.10;;
22359;SDS011;11347;52.030;4.690;2022-12-18T00:27:22;24.77;;;12.17;;
22359;SDS011;11347;52.030;4.690;2022-12-18T00:29:48;26.90;;;13.23;;
22359;SDS011;11347;52.030;4.690;2022-12-18T00:32:14;25.23;;;12.37;;
22359;SDS011;11347;52.030;4.690;2022-12-18T00:34:39;25.97;;;12.57;;
22359;SDS011;11347;52.030;4.690;2022-12-18T00:37:05;25.13;;;12.17;;
22359;SDS011;11347;52.030;4.690;2022-12-18T00:39:30;26.93;;;12.60;;
22359;SDS011;11347;52.030;4.690;2022-12-18T00:41:56;25.53;;;11.97;;
22359;SDS011;11347;52.030;4.690;2022-12-18T00:44:40;24.43;;;11.47;;
22359;SDS011;11347;52.030;4.690;2022-12-18T00:47:05;25.33;;;12.47;;
22359;SDS011;11347;52.030;4.690;2022-12-18T00:49:31;25.80;;;12.37;;
22359;SDS011;11347;52.030;4.690;2022-12-18T00:51:57;29.03;;;12.50;;
22359;SDS011;11347;52.030;4.690;2022-12-18T00:54:22;25.37;;;12.23;;
22359;SDS011;11347;52.030;4.690;2022-12-18T00:56:48;27.03;;;12.60;;
22359;SDS011;11347;52.030;4.690;2022-12-18T00:59:13;26.47;;;13.13;;
22359;SDS011;11347;52.030;4.690;2022-12-18T01:01:39;23.43;;;12.27;;
22359;SDS011;11347;52.030;4.690;2022-12-18T01:04:05;24.53;;;12.40;;
22359;SDS011;11347;52.030;4.690;2022-12-18T01:06:30;25.57;;;12.53;;
22359;SDS011;11347;52.030;4.690;2022-12-18T01:08:56;23.87;;;12.17;;
22359;SDS011;11347;52.030;4.690;2022-12-18T01:11:22;26.50;;;12.13;;
22359;SDS011;11347;52.030;4.690;2022-12-18T01:13:48;26.47;;;12.67;;
22359;SDS011;11347;52.030;4.690;2022-12-18T01:16:14;26.77;;;12.60;;
22359;SDS011;11347;52.030;4.690;2022-12-18T01:18:42;24.70;;;11.43;;
22359;SDS011;11347;52.030;4.690;2022-12-18T01:21:08;24.33;;;12.33;;
22359;SDS011;11347;52.030;4.690;2022-12-18T01:23:35;24.23;;;12.07;;
22359;SDS011;11347;52.030;4.690;2022-12-18T01:26:07;24.70;;;11.23;;
22359;SDS011;11347;52.030;4.690;2022-12-18T01:28:35;22.23;;;10.70;;
22359;SDS011;11347;52.030;4.690;2022-12-18T01:33:37;22.80;;;10.83;;
22359;SDS011;11347;52.030;4.690;2022-12-18T01:36:02;18.80;;;9.37;;
22359;SDS011;11347;52.030;4.690;2022-12-18T01:38:28;21.80;;;11.07;;
22359;SDS011;11347;52.030;4.690;2022-12-18T01:41:00;19.63;;;9.97;;
22359;SDS011;11347;52.030;4.690;2022-12-18T01:43:46;20.63;;;9.93;;
22359;SDS011;11347;52.030;4.690;2022-12-18T01:46:17;20.03;;;10.07;;
22359;SDS011;11347;52.030;4.690;2022-12-18T01:48:45;19.77;;;9.80;;
22359;SDS011;11347;52.030;4.690;2022-12-18T01:51:13;19.17;;;10.07;;
22359;SDS011;11347;52.030;4.690;2022-12-18T01:53:39;20.33;;;9.70;;
22359;SDS011;11347;52.030;4.690;2022-12-18T01:56:07;19.07;;;9.97;;
22359;SDS011;11347;52.030;4.690;2022-12-18T01:59:07;17.07;;;9.73;;
22359;SDS011;11347;52.030;4.690;2022-12-18T02:01:30;19.67;;;9.50;;
22359;SDS011;11347;52.030;4.690;2022-12-18T02:03:56;16.93;;;9.33;;
22359;SDS011;11347;52.030;4.690;2022-12-18T02:06:41;18.30;;;9.43;;
22359;SDS011;11347;52.030;4.690;2022-12-18T02:09:10;18.47;;;9.70;;
22359;SDS011;11347;52.030;4.690;2022-12-18T02:12:04;18.23;;;9.87;;
22359;SDS011;11347;52.030;4.690;2022-12-18T02:14:38;17.87;;;9.50;;
22359;SDS011;11347;52.030;4.690;2022-12-18T02:17:16;15.53;;;8.73;;
22359;SDS011;11347;52.030;4.690;2022-12-18T02:19:47;18.20;;;9.50;;
22359;SDS011;11347;52.030;4.690;2022-12-18T02:23:23;18.33;;;9.70;;
22359;SDS011;11347;52.030;4.690;2022-12-18T02:28:17;18.87;;;9.77;;
22359;SDS011;11347;52.030;4.690;2022-12-18T02:30:45;21.17;;;9.77;;
22359;SDS011;11347;52.030;4.690;2022-12-18T02:33:13;17.80;;;9.23;;
22359;SDS011;11347;52.030;4.690;2022-12-18T02:35:40;17.07;;;9.00;;
22359;SDS011;11347;52.030;4.690;2022-12-18T02:38:08;20.13;;;9.57;;
22359;SDS011;11347;52.030;4.690;2022-12-18T02:40:35;20.77;;;9.77;;
22359;SDS011;11347;52.030;4.690;2022-12-18T02:43:09;16.47;;;8.97;;
22359;SDS011;11347;52.030;4.690;2022-12-18T02:45:50;17.17;;;8.97;;
22359;SDS011;11347;52.030;4.690;2022-12-18T02:48:24;15.83;;;9.10;;
22359;SDS011;11347;52.030;4.690;2022-12-18T02:53:51;17.17;;;9.33;;
22359;SDS011;11347;52.030;4.690;2022-12-18T02:56:26;17.87;;;9.10;;
22359;SDS011;11347;52.030;4.690;2022-12-18T02:59:00;19.13;;;9.07;;
22359;SDS011;11347;52.030;4.690;2022-12-18T03:04:04;17.77;;;9.07;;
22359;SDS011;11347;52.030;4.690;2022-12-18T03:06:39;18.27;;;9.23;;
22359;SDS011;11347;52.030;4.690;2022-12-18T03:09:11;17.97;;;9.07;;
22359;SDS011;11347;52.030;4.690;2022-12-18T03:11:41;18.53;;;9.37;;
22359;SDS011;11347;52.030;4.690;2022-12-18T03:14:30;17.23;;;8.90;;
22359;SDS011;11347;52.030;4.690;2022-12-18T03:16:59;18.10;;;9.37;;
22359;SDS011;11347;52.030;4.690;2022-12-18T03:19:27;17.43;;;9.23;;
22359;SDS011;11347;52.030;4.690;2022-12-18T03:21:57;16.47;;;9.50;;
22359;SDS011;11347;52.030;4.690;2022-12-18T03:24:26;17.00;;;8.80;;
22359;SDS011;11347;52.030;4.690;2022-12-18T03:26:56;16.80;;;9.17;;
22359;SDS011;11347;52.030;4.690;2022-12-18T03:29:27;16.83;;;8.70;;
22359;SDS011;11347;52.030;4.690;2022-12-18T03:32:12;16.73;;;8.83;;
22359;SDS011;11347;52.030;4.690;2022-12-18T03:34:43;18.03;;;9.03;;
22359;SDS011;11347;52.030;4.690;2022-12-18T03:37:13;17.70;;;8.77;;
22359;SDS011;11347;52.030;4.690;2022-12-18T03:39:39;18.67;;;9.60;;
22359;SDS011;11347;52.030;4.690;2022-12-18T03:42:06;17.57;;;9.30;;
22359;SDS011;11347;52.030;4.690;2022-12-18T03:44:41;18.70;;;9.37;;
22359;SDS011;11347;52.030;4.690;2022-12-18T03:47:22;18.10;;;9.57;;
22359;SDS011;11347;52.030;4.690;2022-12-18T03:49:57;17.53;;;9.00;;
22359;SDS011;11347;52.030;4.690;2022-12-18T03:52:26;17.77;;;9.07;;
22359;SDS011;11347;52.030;4.690;2022-12-18T03:55:00;16.87;;;8.80;;
22359;SDS011;11347;52.030;4.690;2022-12-18T03:57:28;16.43;;;8.80;;
22359;SDS011;11347;52.030;4.690;2022-12-18T04:00:06;16.00;;;8.70;;
22359;SDS011;11347;52.030;4.690;2022-12-18T04:02:35;17.53;;;9.23;;
22359;SDS011;11347;52.030;4.690;2022-12-18T04:05:05;16.53;;;8.83;;
22359;SDS011;11347;52.030;4.690;2022-12-18T04:07:32;16.20;;;9.00;;
22359;SDS011;11347;52.030;4.690;2022-12-18T04:09:58;16.63;;;8.77;;
22359;SDS011;11347;52.030;4.690;2022-12-18T04:12:26;16.03;;;9.00;;
22359;SDS011;11347;52.030;4.690;2022-12-18T04:14:53;16.63;;;8.70;;
22359;SDS011;11347;52.030;4.690;2022-12-18T04:17:19;17.90;;;9.60;;
22359;SDS011;11347;52.030;4.690;2022-12-18T04:19:44;18.87;;;9.60;;
22359;SDS011;11347;52.030;4.690;2022-12-18T04:22:10;14.97;;;8.40;;
22359;SDS011;11347;52.030;4.690;2022-12-18T04:24:36;16.60;;;9.07;;
22359;SDS011;11347;52.030;4.690;2022-12-18T04:27:01;14.60;;;8.43;;
22359;SDS011;11347;52.030;4.690;2022-12-18T04:29:27;16.17;;;9.27;;
22359;SDS011;11347;52.030;4.690;2022-12-18T04:31:53;16.50;;;8.87;;
22359;SDS011;11347;52.030;4.690;2022-12-18T04:34:22;17.73;;;8.80;;
22359;SDS011;11347;52.030;4.690;2022-12-18T04:36:47;17.43;;;9.73;;
22359;SDS011;11347;52.030;4.690;2022-12-18T04:39:13;16.07;;;8.80;;
22359;SDS011;11347;52.030;4.690;2022-12-18T04:41:39;18.07;;;9.20;;
22359;SDS011;11347;52.030;4.690;2022-12-18T04:44:04;18.00;;;9.50;;
22359;SDS011;11347;52.030;4.690;2022-12-18T04:46:30;16.73;;;8.93;;
22359;SDS011;11347;52.030;4.690;2022-12-18T04:48:55;17.93;;;9.47;;
22359;SDS011;11347;52.030;4.690;2022-12-18T04:51:21;16.83;;;8.87;;
22359;SDS011;11347;52.030;4.690;2022-12-18T04:53:47;18.10;;;8.97;;
22359;SDS011;11347;52.030;4.690;2022-12-18T04:56:13;17.73;;;9.10;;
22359;SDS011;11347;52.030;4.690;2022-12-18T04:58:41;17.07;;;9.23;;
22359;SDS011;11347;52.030;4.690;2022-12-18T05:01:08;17.20;;;9.50;;
22359;SDS011;11347;52.030;4.690;2022-12-18T05:03:35;18.17;;;8.97;;
22359;SDS011;11347;52.030;4.690;2022-12-18T05:06:01;19.33;;;9.77;;
22359;SDS011;11347;52.030;4.690;2022-12-18T05:08:30;16.97;;;8.90;;
22359;SDS011;11347;52.030;4.690;2022-12-18T05:11:00;17.37;;;9.40;;
22359;SDS011;11347;52.030;4.690;2022-12-18T05:13:27;18.63;;;9.50;;
22359;SDS011;11347;52.030;4.690;2022-12-18T05:15:53;20.27;;;9.90;;
22359;SDS011;11347;52.030;4.690;2022-12-18T05:18:19;18.53;;;9.57;;
22359;SDS011;11347;52.030;4.690;2022-12-18T05:20:45;20.37;;;9.70;;
22359;SDS011;11347;52.030;4.690;2022-12-18T05:23:11;16.30;;;9.00;;
22359;SDS011;11347;52.030;4.690;2022-12-18T05:25:36;19.60;;;9.30;;
22359;SDS011;11347;52.030;4.690;2022-12-18T05:28:02;17.13;;;9.27;;
22359;SDS011;11347;52.030;4.690;2022-12-18T05:30:28;16.73;;;8.70;;
22359;SDS011;11347;52.030;4.690;2022-12-18T05:32:53;17.37;;;9.47;;
22359;SDS011;11347;52.030;4.690;2022-12-18T05:35:19;17.23;;;9.00;;
22359;SDS011;11347;52.030;4.690;2022-12-18T05:37:44;17.10;;;8.77;;
22359;SDS011;11347;52.030;4.690;2022-12-18T05:40:10;18.60;;;9.33;;
22359;SDS011;11347;52.030;4.690;2022-12-18T05:42:39;17.40;;;8.93;;
22359;SDS011;11347;52.030;4.690;2022-12-18T05:45:04;17.97;;;9.57;;
22359;SDS011;11347;52.030;4.690;2022-12-18T05:47:30;18.03;;;9.07;;
22359;SDS011;11347;52.030;4.690;2022-12-18T05:49:56;18.30;;;9.33;;
22359;SDS011;11347;52.030;4.690;2022-12-18T05:52:22;17.33;;;9.07;;
22359;SDS011;11347;52.030;4.690;2022-12-18T05:54:47;17.00;;;8.83;;
22359;SDS011;11347;52.030;4.690;2022-12-18T05:57:13;16.07;;;8.50;;
22359;SDS011;11347;52.030;4.690;2022-12-18T05:59:39;17.10;;;9.07;;
22359;SDS011;11347;52.030;4.690;2022-12-18T06:02:04;17.83;;;9.20;;
22359;SDS011;11347;52.030;4.690;2022-12-18T06:04:30;18.00;;;9.20;;
22359;SDS011;11347;52.030;4.690;2022-12-18T06:06:56;14.93;;;7.80;;
22359;SDS011;11347;52.030;4.690;2022-12-18T06:09:22;17.43;;;9.20;;
22359;SDS011;11347;52.030;4.690;2022-12-18T06:11:47;20.43;;;8.83;;
22359;SDS011;11347;52.030;4.690;2022-12-18T06:14:13;16.87;;;8.77;;
22359;SDS011;11347;52.030;4.690;2022-12-18T06:16:38;18.33;;;8.10;;
22359;SDS011;11347;52.030;4.690;2022-12-18T06:19:04;16.07;;;8.47;;
22359;SDS011;11347;52.030;4.690;2022-12-18T06:21:31;15.73;;;8.33;;
22359;SDS011;11347;52.030;4.690;2022-12-18T06:23:57;16.43;;;8.50;;
22359;SDS011;11347;52.030;4.690;2022-12-18T06:26:23;16.17;;;8.20;;
22359;SDS011;11347;52.030;4.690;2022-12-18T06:28:49;16.97;;;8.73;;
22359;SDS011;11347;52.030;4.690;2022-12-18T06:31:14;16.07;;;8.10;;
22359;SDS011;11347;52.030;4.690;2022-12-18T06:33:40;17.30;;;8.10;;
22359;SDS011;11347;52.030;4.690;2022-12-18T06:36:10;14.60;;;7.70;;
22359;SDS011;11347;52.030;4.690;2022-12-18T06:38:37;17.30;;;8.27;;
22359;SDS011;11347;52.030;4.690;2022-12-18T06:41:11;18.10;;;8.93;;
22359;SDS011;11347;52.030;4.690;2022-12-18T06:43:39;16.93;;;7.97;;
22359;SDS011;11347;52.030;4.690;2022-12-18T06:46:05;18.03;;;8.70;;
22359;SDS011;11347;52.030;4.690;2022-12-18T06:48:31;16.30;;;8.10;;
22359;SDS011;11347;52.030;4.690;2022-12-18T06:50:57;15.70;;;8.37;;
22359;SDS011;11347;52.030;4.690;2022-12-18T06:53:22;14.23;;;7.93;;
22359;SDS011;11347;52.030;4.690;2022-12-18T06:55:48;16.00;;;7.70;;
22359;SDS011;11347;52.030;4.690;2022-12-18T06:58:14;15.33;;;8.20;;
22359;SDS011;11347;52.030;4.690;2022-12-18T07:00:39;15.30;;;7.60;;
22359;SDS011;11347;52.030;4.690;2022-12-18T07:03:05;16.10;;;8.23;;
22359;SDS011;11347;52.030;4.690;2022-12-18T07:05:31;14.93;;;8.10;;
22359;SDS011;11347;52.030;4.690;2022-12-18T07:07:57;15.37;;;8.00;;
22359;SDS011;11347;52.030;4.690;2022-12-18T07:10:22;15.77;;;8.07;;
22359;SDS011;11347;52.030;4.690;2022-12-18T07:12:48;14.20;;;7.77;;
22359;SDS011;11347;52.030;4.690;2022-12-18T07:15:13;16.50;;;8.07;;
22359;SDS011;11347;52.030;4.690;2022-12-18T07:17:39;13.40;;;7.03;;
22359;SDS011;11347;52.030;4.690;2022-12-18T07:20:05;14.90;;;8.20;;
22359;SDS011;11347;52.030;4.690;2022-12-18T07:22:31;14.27;;;7.23;;
22359;SDS011;11347;52.030;4.690;2022-12-18T07:24:56;14.67;;;7.77;;
22359;SDS011;11347;52.030;4.690;2022-12-18T07:27:22;18.13;;;7.83;;
22359;SDS011;11347;52.030;4.690;2022-12-18T07:29:47;16.50;;;7.37;;
22359;SDS011;11347;52.030;4.690;2022-12-18T07:32:13;15.47;;;7.50;;
22359;SDS011;11347;52.030;4.690;2022-12-18T07:34:39;14.57;;;7.23;;
22359;SDS011;11347;52.030;4.690;2022-12-18T07:37:05;14.50;;;7.17;;
22359;SDS011;11347;52.030;4.690;2022-12-18T07:39:30;15.07;;;6.87;;
22359;SDS011;11347;52.030;4.690;2022-12-18T07:41:56;15.83;;;7.50;;
22359;SDS011;11347;52.030;4.690;2022-12-18T07:44:40;15.00;;;7.47;;
22359;SDS011;11347;52.030;4.690;2022-12-18T07:47:06;14.57;;;7.47;;
22359;SDS011;11347;52.030;4.690;2022-12-18T07:49:31;13.40;;;6.23;;
22359;SDS011;11347;52.030;4.690;2022-12-18T07:51:57;14.43;;;6.87;;
22359;SDS011;11347;52.030;4.690;2022-12-18T07:54:23;12.40;;;6.53;;
22359;SDS011;11347;52.030;4.690;2022-12-18T07:56:50;11.87;;;6.43;;
22359;SDS011;11347;52.030;4.690;2022-12-18T07:59:16;14.23;;;6.57;;
22359;SDS011;11347;52.030;4.690;2022-12-18T08:01:42;13.13;;;7.30;;
22359;SDS011;11347;52.030;4.690;2022-12-18T08:04:08;12.57;;;6.47;;
22359;SDS011;11347;52.030;4.690;2022-12-18T08:06:33;13.50;;;6.57;;
22359;SDS011;11347;52.030;4.690;2022-12-18T08:08:59;15.13;;;6.67;;
22359;SDS011;11347;52.030;4.690;2022-12-18T08:11:25;12.97;;;6.60;;
22359;SDS011;11347;52.030;4.690;2022-12-18T08:13:52;13.37;;;7.30;;
22359;SDS011;11347;52.030;4.690;2022-12-18T08:16:18;12.67;;;6.67;;
22359;SDS011;11347;52.030;4.690;2022-12-18T08:18:48;10.93;;;6.30;;
22359;SDS011;11347;52.030;4.690;2022-12-18T08:21:27;12.27;;;6.50;;
22359;SDS011;11347;52.030;4.690;2022-12-18T08:23:55;13.17;;;6.83;;
22359;SDS011;11347;52.030;4.690;2022-12-18T08:26:22;11.53;;;6.57;;
22359;SDS011;11347;52.030;4.690;2022-12-18T08:28:51;12.10;;;6.13;;
22359;SDS011;11347;52.030;4.690;2022-12-18T08:31:19;11.73;;;5.90;;
22359;SDS011;11347;52.030;4.690;2022-12-18T08:33:45;16.37;;;6.57;;
22359;SDS011;11347;52.030;4.690;2022-12-18T08:36:17;11.27;;;6.20;;
22359;SDS011;11347;52.030;4.690;2022-12-18T08:38:43;11.97;;;6.57;;
22359;SDS011;11347;52.030;4.690;2022-12-18T08:41:10;11.07;;;6.23;;
22359;SDS011;11347;52.030;4.690;2022-12-18T08:43:37;11.63;;;6.33;;
22359;SDS011;11347;52.030;4.690;2022-12-18T08:46:21;10.73;;;5.70;;
22359;SDS011;11347;52.030;4.690;2022-12-18T08:48:52;11.20;;;6.17;;
22359;SDS011;11347;52.030;4.690;2022-12-18T08:51:19;11.57;;;6.23;;
22359;SDS011;11347;52.030;4.690;2022-12-18T08:53:45;12.20;;;6.60;;
22359;SDS011;11347;52.030;4.690;2022-12-18T08:56:12;11.17;;;5.80;;
22359;SDS011;11347;52.030;4.690;2022-12-18T08:58:41;14.67;;;5.77;;
22359;SDS011;11347;52.030;4.690;2022-12-18T09:01:08;10.83;;;6.07;;
22359;SDS011;11347;52.030;4.690;2022-12-18T09:03:35;13.10;;;6.17;;
22359;SDS011;11347;52.030;4.690;2022-12-18T09:06:01;11.13;;;5.97;;
22359;SDS011;11347;52.030;4.690;2022-12-18T09:08:27;12.20;;;6.53;;
22359;SDS011;11347;52.030;4.690;2022-12-18T09:10:53;10.47;;;6.03;;
22359;SDS011;11347;52.030;4.690;2022-12-18T09:13:20;11.33;;;5.90;;
22359;SDS011;11347;52.030;4.690;2022-12-18T09:15:55;10.23;;;5.70;;
22359;SDS011;11347;52.030;4.690;2022-12-18T09:18:21;10.23;;;5.40;;
22359;SDS011;11347;52.030;4.690;2022-12-18T09:20:48;12.40;;;5.90;;
22359;SDS011;11347;52.030;4.690;2022-12-18T09:23:15;11.60;;;6.40;;
22359;SDS011;11347;52.030;4.690;2022-12-18T09:25:41;11.00;;;5.60;;
22359;SDS011;11347;52.030;4.690;2022-12-18T09:28:09;10.10;;;5.80;;
22359;SDS011;11347;52.030;4.690;2022-12-18T09:30:48;11.77;;;5.93;;
22359;SDS011;11347;52.030;4.690;2022-12-18T09:33:15;9.77;;;5.70;;
22359;SDS011;11347;52.030;4.690;2022-12-18T09:35:42;11.37;;;6.10;;
22359;SDS011;11347;52.030;4.690;2022-12-18T09:38:18;11.23;;;5.37;;
22359;SDS011;11347;52.030;4.690;2022-12-18T09:40:52;9.77;;;5.67;;
22359;SDS011;11347;52.030;4.690;2022-12-18T09:43:26;9.57;;;5.57;;
22359;SDS011;11347;52.030;4.690;2022-12-18T09:46:07;10.70;;;6.10;;
22359;SDS011;11347;52.030;4.690;2022-12-18T09:48:40;11.63;;;5.93;;
22359;SDS011;11347;52.030;4.690;2022-12-18T09:51:12;10.43;;;6.13;;
22359;SDS011;11347;52.030;4.690;2022-12-18T09:53:46;10.10;;;5.60;;
22359;SDS011;11347;52.030;4.690;2022-12-18T09:56:17;12.30;;;6.17;;
22359;SDS011;11347;52.030;4.690;2022-12-18T09:58:49;12.30;;;6.17;;
22359;SDS011;11347;52.030;4.690;2022-12-18T10:01:24;9.47;;;5.50;;
22359;SDS011;11347;52.030;4.690;2022-12-18T10:03:51;10.40;;;5.70;;
22359;SDS011;11347;52.030;4.690;2022-12-18T10:06:20;9.70;;;5.53;;
22359;SDS011;11347;52.030;4.690;2022-12-18T10:08:53;11.53;;;6.13;;
22359;SDS011;11347;52.030;4.690;2022-12-18T10:11:42;8.20;;;4.90;;
22359;SDS011;11347;52.030;4.690;2022-12-18T10:14:19;10.83;;;5.70;;
22359;SDS011;11347;52.030;4.690;2022-12-18T10:16:59;10.37;;;5.50;;
22359;SDS011;11347;52.030;4.690;2022-12-18T10:19:45;9.83;;;5.47;;
22359;SDS011;11347;52.030;4.690;2022-12-18T10:25:19;11.53;;;6.00;;
22359;SDS011;11347;52.030;4.690;2022-12-18T10:27:58;10.37;;;5.30;;
22359;SDS011;11347;52.030;4.690;2022-12-18T10:30:32;10.00;;;5.60;;
22359;SDS011;11347;52.030;4.690;2022-12-18T10:33:01;10.17;;;5.53;;
22359;SDS011;11347;52.030;4.690;2022-12-18T10:35:29;11.70;;;5.80;;
22359;SDS011;11347;52.030;4.690;2022-12-18T10:38:02;9.83;;;5.70;;
22359;SDS011;11347;52.030;4.690;2022-12-18T10:40:27;10.27;;;5.67;;
22359;SDS011;11347;52.030;4.690;2022-12-18T10:43:03;10.37;;;5.57;;
22359;SDS011;11347;52.030;4.690;2022-12-18T10:45:30;8.60;;;5.47;;
22359;SDS011;11347;52.030;4.690;2022-12-18T10:48:02;10.63;;;5.53;;
22359;SDS011;11347;52.030;4.690;2022-12-18T10:50:30;10.77;;;5.47;;
22359;SDS011;11347;52.030;4.690;2022-12-18T10:52:58;9.03;;;5.30;;
22359;SDS011;11347;52.030;4.690;2022-12-18T10:55:27;9.27;;;5.07;;
22359;SDS011;11347;52.030;4.690;2022-12-18T10:58:13;10.47;;;5.10;;
22359;SDS011;11347;52.030;4.690;2022-12-18T11:03:34;10.20;;;5.47;;
22359;SDS011;11347;52.030;4.690;2022-12-18T11:08:33;9.43;;;5.50;;
22359;SDS011;11347;52.030;4.690;2022-12-18T11:10:59;11.43;;;5.23;;
22359;SDS011;11347;52.030;4.690;2022-12-18T11:13:26;9.97;;;5.57;;
22359;SDS011;11347;52.030;4.690;2022-12-18T11:15:54;8.80;;;4.90;;
22359;SDS011;11347;52.030;4.690;2022-12-18T11:18:30;9.23;;;4.97;;
22359;SDS011;11347;52.030;4.690;2022-12-18T11:21:08;12.77;;;5.53;;
22359;SDS011;11347;52.030;4.690;2022-12-18T11:23:36;9.13;;;5.43;;
22359;SDS011;11347;52.030;4.690;2022-12-18T11:26:09;8.17;;;4.67;;
22359;SDS011;11347;52.030;4.690;2022-12-18T11:28:36;10.37;;;5.27;;
22359;SDS011;11347;52.030;4.690;2022-12-18T11:31:21;9.47;;;5.00;;
22359;SDS011;11347;52.030;4.690;2022-12-18T11:36:38;8.47;;;5.30;;
22359;SDS011;11347;52.030;4.690;2022-12-18T11:39:12;11.67;;;5.53;;
22359;SDS011;11347;52.030;4.690;2022-12-18T11:44:38;10.53;;;5.10;;
22359;SDS011;11347;52.030;4.690;2022-12-18T11:49:47;10.23;;;5.20;;
22359;SDS011;11347;52.030;4.690;2022-12-18T11:52:19;10.13;;;5.30;;
22359;SDS011;11347;52.030;4.690;2022-12-18T11:54:52;9.37;;;5.37;;
22359;SDS011;11347;52.030;4.690;2022-12-18T12:00:20;9.27;;;5.13;;
22359;SDS011;11347;52.030;4.690;2022-12-18T12:05:31;9.00;;;5.10;;
22359;SDS011;11347;52.030;4.690;2022-12-18T12:10:55;9.10;;;4.90;;
22359;SDS011;11347;52.030;4.690;2022-12-18T12:16:16;7.90;;;4.57;;
22359;SDS011;11347;52.030;4.690;2022-12-18T12:19:15;9.77;;;5.23;;
22359;SDS011;11347;52.030;4.690;2022-12-18T12:27:53;9.97;;;5.10;;
22359;SDS011;11347;52.030;4.690;2022-12-18T12:30:31;9.53;;;4.80;;
22359;SDS011;11347;52.030;4.690;2022-12-18T12:33:20;8.47;;;5.10;;
22359;SDS011;11347;52.030;4.690;2022-12-18T12:38:52;11.20;;;5.37;;
22359;SDS011;11347;52.030;4.690;2022-12-18T12:41:23;9.40;;;5.00;;
22359;SDS011;11347;52.030;4.690;2022-12-18T12:44:13;9.23;;;5.03;;
22359;SDS011;11347;52.030;4.690;2022-12-18T12:46:43;8.87;;;4.90;;
22359;SDS011;11347;52.030;4.690;2022-12-18T12:49:17;9.23;;;5.00;;
22359;SDS011;11347;52.030;4.690;2022-12-18T12:51:50;8.53;;;5.03;;
22359;SDS011;11347;52.030;4.690;2022-12-18T12:54:24;7.97;;;4.70;;
22359;SDS011;11347;52.030;4.690;2022-12-18T13:02:17;10.33;;;5.47;;
22359;SDS011;11347;52.030;4.690;2022-12-18T13:07:48;8.63;;;5.00;;
22359;SDS011;11347;52.030;4.690;2022-12-18T13:12:51;8.93;;;4.97;;
22359;SDS011;11347;52.030;4.690;2022-12-18T13:15:38;11.00;;;4.70;;
22359;SDS011;11347;52.030;4.690;2022-12-18T13:18:28;12.77;;;5.23;;
22359;SDS011;11347;52.030;4.690;2022-12-18T13:25:48;7.90;;;4.37;;
22359;SDS011;11347;52.030;4.690;2022-12-18T13:28:15;9.70;;;5.27;;
22359;SDS011;11347;52.030;4.690;2022-12-18T13:31:01;8.87;;;4.80;;
22359;SDS011;11347;52.030;4.690;2022-12-18T13:36:28;10.10;;;5.03;;
22359;SDS011;11347;52.030;4.690;2022-12-18T13:41:42;8.60;;;4.77;;
22359;SDS011;11347;52.030;4.690;2022-12-18T13:44:54;7.67;;;4.70;;
22359;SDS011;11347;52.030;4.690;2022-12-18T13:46:55;9.03;;;4.67;;
22359;SDS011;11347;52.030;4.690;2022-12-18T13:49:22;7.97;;;4.80;;
22359;SDS011;11347;52.030;4.690;2022-12-18T13:51:53;8.00;;;4.80;;
22359;SDS011;11347;52.030;4.690;2022-12-18T13:56:53;10.03;;;5.00;;
22359;SDS011;11347;52.030;4.690;2022-12-18T13:59:25;7.60;;;4.70;;
22359;SDS011;11347;52.030;4.690;2022-12-18T14:02:17;7.73;;;4.70;;
22359;SDS011;11347;52.030;4.690;2022-12-18T14:04:47;10.57;;;5.07;;
22359;SDS011;11347;52.030;4.690;2022-12-18T14:07:24;8.67;;;4.60;;
22359;SDS011;11347;52.030;4.690;2022-12-18T14:09:58;9.13;;;4.83;;
22359;SDS011;11347;52.030;4.690;2022-12-18T14:12:27;8.33;;;4.77;;
22359;SDS011;11347;52.030;4.690;2022-12-18T14:17:55;8.30;;;4.73;;
22359;SDS011;11347;52.030;4.690;2022-12-18T14:20:22;9.97;;;5.17;;
22359;SDS011;11347;52.030;4.690;2022-12-18T14:22:53;8.43;;;4.90;;
22359;SDS011;11347;52.030;4.690;2022-12-18T14:25:22;9.17;;;4.63;;
22359;SDS011;11347;52.030;4.690;2022-12-18T14:27:50;7.80;;;4.57;;
22359;SDS011;11347;52.030;4.690;2022-12-18T14:43:38;8.17;;;4.63;;
22359;SDS011;11347;52.030;4.690;2022-12-18T14:46:05;8.40;;;4.50;;
22359;SDS011;11347;52.030;4.690;2022-12-18T14:48:50;7.57;;;4.60;;
22359;SDS011;11347;52.030;4.690;2022-12-18T14:51:24;9.33;;;4.70;;
22359;SDS011;11347;52.030;4.690;2022-12-18T14:56:30;8.63;;;4.87;;
22359;SDS011;11347;52.030;4.690;2022-12-18T14:59:05;9.00;;;4.57;;
22359;SDS011;11347;52.030;4.690;2022-12-18T15:01:39;8.20;;;4.67;;
22359;SDS011;11347;52.030;4.690;2022-12-18T15:09:32;8.30;;;4.73;;
22359;SDS011;11347;52.030;4.690;2022-12-18T15:11:59;9.67;;;5.00;;
22359;SDS011;11347;52.030;4.690;2022-12-18T15:16:59;9.53;;;4.83;;
22359;SDS011;11347;52.030;4.690;2022-12-18T15:19:39;10.00;;;4.63;;
22359;SDS011;11347;52.030;4.690;2022-12-18T15:22:16;8.43;;;4.30;;
22359;SDS011;11347;52.030;4.690;2022-12-18T15:24:44;7.57;;;4.57;;
22359;SDS011;11347;52.030;4.690;2022-12-18T15:32:37;7.30;;;4.60;;
22359;SDS011;11347;52.030;4.690;2022-12-18T15:37:42;7.67;;;4.60;;
22359;SDS011;11347;52.030;4.690;2022-12-18T15:40:16;9.23;;;5.00;;
22359;SDS011;11347;52.030;4.690;2022-12-18T15:42:46;8.83;;;4.67;;
22359;SDS011;11347;52.030;4.690;2022-12-18T15:45:32;7.83;;;4.57;;
22359;SDS011;11347;52.030;4.690;2022-12-18T15:47:57;10.37;;;5.43;;
22359;SDS011;11347;52.030;4.690;2022-12-18T15:50:23;8.10;;;4.50;;
22359;SDS011;11347;52.030;4.690;2022-12-18T15:52:49;8.33;;;4.57;;
22359;SDS011;11347;52.030;4.690;2022-12-18T15:55:22;7.63;;;4.50;;
22359;SDS011;11347;52.030;4.690;2022-12-18T15:58:08;7.67;;;4.47;;
22359;SDS011;11347;52.030;4.690;2022-12-18T16:00:35;7.27;;;4.60;;
22359;SDS011;11347;52.030;4.690;2022-12-18T16:03:03;9.80;;;4.47;;
22359;SDS011;11347;52.030;4.690;2022-12-18T16:05:29;9.40;;;4.80;;
22359;SDS011;11347;52.030;4.690;2022-12-18T16:07:55;7.90;;;4.63;;
22359;SDS011;11347;52.030;4.690;2022-12-18T16:10:20;9.53;;;4.87;;
22359;SDS011;11347;52.030;4.690;2022-12-18T16:12:46;9.07;;;4.63;;
22359;SDS011;11347;52.030;4.690;2022-12-18T16:15:12;7.13;;;4.40;;
22359;SDS011;11347;52.030;4.690;2022-12-18T16:17:40;8.10;;;4.37;;
22359;SDS011;11347;52.030;4.690;2022-12-18T16:20:11;8.63;;;4.40;;
22359;SDS011;11347;52.030;4.690;2022-12-18T16:22:42;8.87;;;4.80;;
22359;SDS011;11347;52.030;4.690;2022-12-18T16:25:15;9.43;;;4.53;;
22359;SDS011;11347;52.030;4.690;2022-12-18T16:27:52;9.93;;;5.17;;
22359;SDS011;11347;52.030;4.690;2022-12-18T16:30:26;8.97;;;5.00;;
22359;SDS011;11347;52.030;4.690;2022-12-18T16:32:55;8.60;;;4.93;;
22359;SDS011;11347;52.030;4.690;2022-12-18T16:35:21;9.17;;;4.90;;
22359;SDS011;11347;52.030;4.690;2022-12-18T16:37:47;7.00;;;4.20;;